»·PEaware :: N1510Q NONE-KSNA

N1510Q :: NONE-KSNA

FLIGHT INFORMATION

Flight Status: Arrived
Operator: Privately registered:
United States
More flights under this callsign
Pilot: Todd H. (25818)
Aircraft: CESSNA 172 SKYHAWK
(C172)
More flights by this aircraft type
Origin: NONE
Destination: KSNA John Wayne-Orange Co
United States
More flights between these airports :: More routes between these airports
Route: +
File this flight plan on PilotEdge
Remarks: sho FF
Altitude:
(Current/Filed)
0ft
Speed:
(Current/Filed)
0kts
Departed: 22-May-20 04:17 PM
Arrived: 22-May-20 05:08 PM
Distance/Time
Traveled:
Not Available
Distance/Time
To Go:
Arrived

Flight Plot

Page will automatically refresh every two minutes.


Map Options




Map Legend


Flown Route
Filed Route
Departure Airport
Arrival Airport
Navaid (VOR, NDB)
Fix

Horizontal Profiles

Position Reports

Time Latitude Longitude Heading Altitude Ground
Speed
22-May-20 16:15 34.294138 -119.001710 92 5543ft 88kts
22-May-20 16:16 34.293162 -118.970953 92 5542ft 93kts
22-May-20 16:17 34.292134 -118.939461 92 5542ft 93kts
22-May-20 16:18 34.291078 -118.907909 92 5542ft 93kts
22-May-20 16:19 34.290002 -118.876457 92 5542ft 93kts
22-May-20 16:20 34.288896 -118.844881 92 5542ft 93kts
22-May-20 16:21 34.287770 -118.813415 92 5542ft 93kts
22-May-20 16:22 34.286620 -118.781992 92 5542ft 93kts
22-May-20 16:23 34.285439 -118.750401 92 5542ft 93kts
22-May-20 16:24 34.284240 -118.718963 92 5542ft 93kts
22-May-20 16:25 34.281988 -118.687666 112 5541ft 93kts
22-May-20 16:26 34.266443 -118.662517 139 5541ft 93kts
22-May-20 16:27 34.244184 -118.646332 149 5542ft 93kts
22-May-20 16:28 34.221550 -118.630594 149 5542ft 93kts
22-May-20 16:29 34.198876 -118.614867 149 5542ft 94kts
22-May-20 16:30 34.176197 -118.599175 149 5542ft 94kts
22-May-20 16:31 34.153477 -118.583346 146 5542ft 94kts
22-May-20 16:32 34.132015 -118.565484 145 5542ft 94kts
22-May-20 16:33 34.116392 -118.540655 118 5542ft 93kts
22-May-20 16:34 34.102222 -118.514453 139 5542ft 93kts
22-May-20 16:35 34.079221 -118.499974 162 5542ft 93kts
22-May-20 16:36 34.055320 -118.487646 153 5542ft 93kts
22-May-20 16:37 34.030348 -118.478967 151 5542ft 94kts
22-May-20 16:38 34.006471 -118.466084 159 5542ft 94kts
22-May-20 16:39 33.981891 -118.455290 159 5542ft 94kts
22-May-20 16:40 33.957389 -118.444323 156 5542ft 94kts
22-May-20 16:41 33.933434 -118.431560 155 5542ft 94kts
22-May-20 16:42 33.913867 -118.411238 137 5542ft 94kts
22-May-20 16:43 33.894054 -118.390538 138 5542ft 94kts
22-May-20 16:44 33.874084 -118.369775 138 5542ft 94kts
22-May-20 16:45 33.854453 -118.349407 139 5542ft 94kts
22-May-20 16:46 33.834563 -118.328813 139 5542ft 94kts
22-May-20 16:47 33.814747 -118.308091 139 5542ft 94kts
22-May-20 16:48 33.794914 -118.287276 139 5542ft 94kts
22-May-20 16:49 33.775180 -118.266608 139 5542ft 94kts
22-May-20 16:50 33.755302 -118.245834 139 5542ft 95kts
22-May-20 16:51 33.735264 -118.224938 139 5542ft 94kts
22-May-20 16:52 33.715403 -118.204270 139 5542ft 94kts
22-May-20 16:53 33.695436 -118.183535 139 5542ft 94kts
22-May-20 16:54 33.675631 -118.162941 134 5541ft 94kts
22-May-20 16:55 33.678242 -118.133004 72 5542ft 93kts
22-May-20 16:56 33.685968 -118.102934 74 5542ft 94kts
22-May-20 16:57 33.692421 -118.072415 75 5542ft 94kts
22-May-20 16:58 33.698838 -118.041815 74 5542ft 94kts
22-May-20 16:59 33.706084 -118.011502 73 5542ft 94kts
22-May-20 17:00 33.713392 -117.980921 73 5542ft 95kts
22-May-20 17:01 33.720718 -117.950138 73 5542ft 95kts
22-May-20 17:02 33.726079 -117.920005 85 5298ft 86kts
22-May-20 17:03 33.735254 -117.896414 85 3891ft 93kts
22-May-20 17:04 33.729731 -117.869222 118 2194ft 77kts
22-May-20 17:05 33.715904 -117.849772 154 1026ft 84kts
22-May-20 17:06 33.695618 -117.856519 207 388ft 76kts
22-May-20 17:07 33.678366 -117.867159 207 60ft 26kts
22-May-20 17:08 33.678095 -117.868427 282 60ft 0kts
22-May-20 17:21 34.210350 -119.076468 90 79ft 0kts

Navigation Log

Ident Type
Flight plan parsing failed, navigation log unavailable